sensor_id;sensor_type;location;lat;lon;timestamp;P1;durP1;ratioP1;P2;durP2;ratioP2
1779;SDS011;10019;46.670;14.260;2022-12-07T00:01:58;9.50;;;7.20;;
1779;SDS011;10019;46.670;14.260;2022-12-07T00:04:29;7.17;;;6.47;;
1779;SDS011;10019;46.670;14.260;2022-12-07T00:07:01;11.77;;;7.20;;
1779;SDS011;10019;46.670;14.260;2022-12-07T00:09:34;10.17;;;7.00;;
1779;SDS011;10019;46.670;14.260;2022-12-07T00:12:07;8.80;;;6.37;;
1779;SDS011;10019;46.670;14.260;2022-12-07T00:14:39;9.10;;;6.93;;
1779;SDS011;10019;46.670;14.260;2022-12-07T00:17:11;8.93;;;7.20;;
1779;SDS011;10019;46.670;14.260;2022-12-07T00:19:42;7.83;;;6.57;;
1779;SDS011;10019;46.670;14.260;2022-12-07T00:22:14;8.83;;;7.00;;
1779;SDS011;10019;46.670;14.260;2022-12-07T00:24:46;7.80;;;6.60;;
1779;SDS011;10019;46.670;14.260;2022-12-07T00:27:19;10.10;;;7.17;;
1779;SDS011;10019;46.670;14.260;2022-12-07T00:29:50;11.80;;;8.17;;
1779;SDS011;10019;46.670;14.260;2022-12-07T00:32:22;10.70;;;6.77;;
1779;SDS011;10019;46.670;14.260;2022-12-07T00:34:54;9.13;;;7.20;;
1779;SDS011;10019;46.670;14.260;2022-12-07T00:37:25;7.63;;;6.40;;
1779;SDS011;10019;46.670;14.260;2022-12-07T00:39:57;15.33;;;6.57;;
1779;SDS011;10019;46.670;14.260;2022-12-07T00:42:30;9.27;;;7.30;;
1779;SDS011;10019;46.670;14.260;2022-12-07T00:45:02;11.93;;;7.50;;
1779;SDS011;10019;46.670;14.260;2022-12-07T00:47:35;11.17;;;7.27;;
1779;SDS011;10019;46.670;14.260;2022-12-07T00:50:07;9.13;;;6.93;;
1779;SDS011;10019;46.670;14.260;2022-12-07T00:52:39;16.90;;;7.03;;
1779;SDS011;10019;46.670;14.260;2022-12-07T00:55:11;7.13;;;5.67;;
1779;SDS011;10019;46.670;14.260;2022-12-07T00:57:44;8.53;;;6.63;;
1779;SDS011;10019;46.670;14.260;2022-12-07T01:00:16;10.40;;;7.90;;
1779;SDS011;10019;46.670;14.260;2022-12-07T01:02:48;9.70;;;6.80;;
1779;SDS011;10019;46.670;14.260;2022-12-07T01:05:20;9.10;;;7.03;;
1779;SDS011;10019;46.670;14.260;2022-12-07T01:07:52;13.20;;;7.90;;
1779;SDS011;10019;46.670;14.260;2022-12-07T01:10:24;8.90;;;6.40;;
1779;SDS011;10019;46.670;14.260;2022-12-07T01:12:57;9.47;;;7.47;;
1779;SDS011;10019;46.670;14.260;2022-12-07T01:15:29;11.33;;;6.97;;
1779;SDS011;10019;46.670;14.260;2022-12-07T01:18:01;8.77;;;6.70;;
1779;SDS011;10019;46.670;14.260;2022-12-07T01:20:33;8.97;;;7.20;;
1779;SDS011;10019;46.670;14.260;2022-12-07T01:23:04;10.67;;;6.90;;
1779;SDS011;10019;46.670;14.260;2022-12-07T01:25:36;9.00;;;6.90;;
1779;SDS011;10019;46.670;14.260;2022-12-07T01:28:09;9.30;;;7.20;;
1779;SDS011;10019;46.670;14.260;2022-12-07T01:30:41;9.80;;;7.20;;
1779;SDS011;10019;46.670;14.260;2022-12-07T01:33:12;8.60;;;6.17;;
1779;SDS011;10019;46.670;14.260;2022-12-07T01:35:44;10.67;;;7.03;;
1779;SDS011;10019;46.670;14.260;2022-12-07T01:38:16;8.40;;;6.37;;
1779;SDS011;10019;46.670;14.260;2022-12-07T01:40:53;8.13;;;5.10;;
1779;SDS011;10019;46.670;14.260;2022-12-07T01:43:27;8.27;;;5.50;;
1779;SDS011;10019;46.670;14.260;2022-12-07T01:46:00;9.57;;;6.27;;
1779;SDS011;10019;46.670;14.260;2022-12-07T01:48:32;7.93;;;5.70;;
1779;SDS011;10019;46.670;14.260;2022-12-07T01:51:07;10.83;;;6.60;;
1779;SDS011;10019;46.670;14.260;2022-12-07T01:53:41;7.10;;;5.63;;
1779;SDS011;10019;46.670;14.260;2022-12-07T01:56:15;7.03;;;5.50;;
1779;SDS011;10019;46.670;14.260;2022-12-07T01:58:50;6.90;;;5.53;;
1779;SDS011;10019;46.670;14.260;2022-12-07T02:01:22;11.43;;;5.77;;
1779;SDS011;10019;46.670;14.260;2022-12-07T02:03:54;11.50;;;6.07;;
1779;SDS011;10019;46.670;14.260;2022-12-07T02:06:26;12.10;;;5.43;;
1779;SDS011;10019;46.670;14.260;2022-12-07T02:08:58;7.30;;;5.43;;
1779;SDS011;10019;46.670;14.260;2022-12-07T02:11:30;6.97;;;5.80;;
1779;SDS011;10019;46.670;14.260;2022-12-07T02:14:03;11.93;;;6.07;;
1779;SDS011;10019;46.670;14.260;2022-12-07T02:16:37;7.37;;;5.77;;
1779;SDS011;10019;46.670;14.260;2022-12-07T02:19:31;6.97;;;5.37;;
1779;SDS011;10019;46.670;14.260;2022-12-07T02:22:15;7.30;;;5.97;;
1779;SDS011;10019;46.670;14.260;2022-12-07T02:24:54;10.13;;;5.33;;
1779;SDS011;10019;46.670;14.260;2022-12-07T02:27:34;6.10;;;4.60;;
1779;SDS011;10019;46.670;14.260;2022-12-07T02:30:11;8.47;;;6.10;;
1779;SDS011;10019;46.670;14.260;2022-12-07T02:32:45;10.17;;;6.40;;
1779;SDS011;10019;46.670;14.260;2022-12-07T02:35:21;6.90;;;5.17;;
1779;SDS011;10019;46.670;14.260;2022-12-07T02:37:58;7.27;;;5.67;;
1779;SDS011;10019;46.670;14.260;2022-12-07T02:40:34;6.40;;;5.27;;
1779;SDS011;10019;46.670;14.260;2022-12-07T02:43:08;7.93;;;5.40;;
1779;SDS011;10019;46.670;14.260;2022-12-07T02:45:44;6.73;;;5.07;;
1779;SDS011;10019;46.670;14.260;2022-12-07T02:48:17;6.20;;;5.43;;
1779;SDS011;10019;46.670;14.260;2022-12-07T02:50:50;22.13;;;5.37;;
1779;SDS011;10019;46.670;14.260;2022-12-07T02:53:29;5.87;;;5.17;;
1779;SDS011;10019;46.670;14.260;2022-12-07T02:56:03;8.70;;;5.27;;
1779;SDS011;10019;46.670;14.260;2022-12-07T02:58:41;5.93;;;4.60;;
1779;SDS011;10019;46.670;14.260;2022-12-07T03:01:22;6.37;;;5.10;;
1779;SDS011;10019;46.670;14.260;2022-12-07T03:04:02;6.60;;;4.93;;
1779;SDS011;10019;46.670;14.260;2022-12-07T03:06:43;7.10;;;5.70;;
1779;SDS011;10019;46.670;14.260;2022-12-07T03:09:22;8.03;;;5.30;;
1779;SDS011;10019;46.670;14.260;2022-12-07T03:12:00;7.37;;;5.40;;
1779;SDS011;10019;46.670;14.260;2022-12-07T03:14:35;7.93;;;5.40;;
1779;SDS011;10019;46.670;14.260;2022-12-07T03:17:12;6.37;;;5.20;;
1779;SDS011;10019;46.670;14.260;2022-12-07T03:19:46;6.60;;;5.00;;
1779;SDS011;10019;46.670;14.260;2022-12-07T03:22:18;7.27;;;5.20;;
1779;SDS011;10019;46.670;14.260;2022-12-07T03:24:58;9.40;;;4.80;;
1779;SDS011;10019;46.670;14.260;2022-12-07T03:27:33;6.90;;;5.20;;
1779;SDS011;10019;46.670;14.260;2022-12-07T03:30:07;8.53;;;5.30;;
1779;SDS011;10019;46.670;14.260;2022-12-07T03:32:43;8.87;;;5.27;;
1779;SDS011;10019;46.670;14.260;2022-12-07T03:35:17;9.90;;;6.10;;
1779;SDS011;10019;46.670;14.260;2022-12-07T03:37:52;6.33;;;5.10;;
1779;SDS011;10019;46.670;14.260;2022-12-07T03:40:28;8.50;;;5.40;;
1779;SDS011;10019;46.670;14.260;2022-12-07T03:43:01;9.57;;;5.80;;
1779;SDS011;10019;46.670;14.260;2022-12-07T03:45:37;9.50;;;6.07;;
1779;SDS011;10019;46.670;14.260;2022-12-07T03:48:14;11.47;;;6.70;;
1779;SDS011;10019;46.670;14.260;2022-12-07T03:50:52;15.20;;;6.90;;
1779;SDS011;10019;46.670;14.260;2022-12-07T03:53:28;11.20;;;5.83;;
1779;SDS011;10019;46.670;14.260;2022-12-07T03:56:01;12.73;;;7.07;;
1779;SDS011;10019;46.670;14.260;2022-12-07T03:58:33;11.70;;;7.17;;
1779;SDS011;10019;46.670;14.260;2022-12-07T04:01:05;10.33;;;6.77;;
1779;SDS011;10019;46.670;14.260;2022-12-07T04:03:38;12.50;;;7.80;;
1779;SDS011;10019;46.670;14.260;2022-12-07T04:06:10;15.53;;;8.80;;
1779;SDS011;10019;46.670;14.260;2022-12-07T04:08:42;14.23;;;8.30;;
1779;SDS011;10019;46.670;14.260;2022-12-07T04:11:14;14.90;;;8.57;;
1779;SDS011;10019;46.670;14.260;2022-12-07T04:13:45;12.13;;;7.23;;
1779;SDS011;10019;46.670;14.260;2022-12-07T04:16:35;13.73;;;7.97;;
1779;SDS011;10019;46.670;14.260;2022-12-07T04:19:08;14.57;;;7.00;;
1779;SDS011;10019;46.670;14.260;2022-12-07T04:21:39;11.83;;;7.20;;
1779;SDS011;10019;46.670;14.260;2022-12-07T04:24:11;7.73;;;5.97;;
1779;SDS011;10019;46.670;14.260;2022-12-07T04:26:44;8.93;;;6.30;;
1779;SDS011;10019;46.670;14.260;2022-12-07T04:29:16;8.50;;;6.20;;
1779;SDS011;10019;46.670;14.260;2022-12-07T04:31:48;13.30;;;6.83;;
1779;SDS011;10019;46.670;14.260;2022-12-07T04:34:21;10.40;;;6.90;;
1779;SDS011;10019;46.670;14.260;2022-12-07T04:36:53;10.00;;;7.43;;
1779;SDS011;10019;46.670;14.260;2022-12-07T04:39:26;10.10;;;6.90;;
1779;SDS011;10019;46.670;14.260;2022-12-07T04:41:59;8.90;;;6.90;;
1779;SDS011;10019;46.670;14.260;2022-12-07T04:44:30;8.93;;;5.83;;
1779;SDS011;10019;46.670;14.260;2022-12-07T04:47:02;11.30;;;6.87;;
1779;SDS011;10019;46.670;14.260;2022-12-07T04:49:35;10.03;;;6.40;;
1779;SDS011;10019;46.670;14.260;2022-12-07T04:52:07;12.70;;;6.90;;
1779;SDS011;10019;46.670;14.260;2022-12-07T04:54:39;8.80;;;6.00;;
1779;SDS011;10019;46.670;14.260;2022-12-07T04:57:10;8.87;;;5.70;;
1779;SDS011;10019;46.670;14.260;2022-12-07T04:59:42;9.10;;;5.97;;
1779;SDS011;10019;46.670;14.260;2022-12-07T05:02:14;10.27;;;6.03;;
1779;SDS011;10019;46.670;14.260;2022-12-07T05:04:47;9.67;;;5.90;;
1779;SDS011;10019;46.670;14.260;2022-12-07T05:07:18;8.07;;;5.63;;
1779;SDS011;10019;46.670;14.260;2022-12-07T05:09:50;8.63;;;6.00;;
1779;SDS011;10019;46.670;14.260;2022-12-07T05:12:22;13.77;;;5.90;;
1779;SDS011;10019;46.670;14.260;2022-12-07T05:14:53;7.67;;;5.33;;
1779;SDS011;10019;46.670;14.260;2022-12-07T05:17:25;6.93;;;5.30;;
1779;SDS011;10019;46.670;14.260;2022-12-07T05:19:58;6.30;;;4.70;;
1779;SDS011;10019;46.670;14.260;2022-12-07T05:22:30;6.10;;;5.00;;
1779;SDS011;10019;46.670;14.260;2022-12-07T05:25:02;8.93;;;5.50;;
1779;SDS011;10019;46.670;14.260;2022-12-07T05:27:34;6.00;;;4.90;;
1779;SDS011;10019;46.670;14.260;2022-12-07T05:30:06;6.40;;;5.63;;
1779;SDS011;10019;46.670;14.260;2022-12-07T05:32:38;7.80;;;5.57;;
1779;SDS011;10019;46.670;14.260;2022-12-07T05:35:11;6.80;;;5.63;;
1779;SDS011;10019;46.670;14.260;2022-12-07T05:37:43;8.37;;;5.87;;
1779;SDS011;10019;46.670;14.260;2022-12-07T05:40:15;6.23;;;5.40;;
1779;SDS011;10019;46.670;14.260;2022-12-07T05:42:48;9.60;;;5.97;;
1779;SDS011;10019;46.670;14.260;2022-12-07T05:45:20;7.53;;;5.60;;
1779;SDS011;10019;46.670;14.260;2022-12-07T05:47:52;5.83;;;4.93;;
1779;SDS011;10019;46.670;14.260;2022-12-07T05:50:25;8.67;;;5.70;;
1779;SDS011;10019;46.670;14.260;2022-12-07T05:52:57;7.83;;;5.50;;
1779;SDS011;10019;46.670;14.260;2022-12-07T05:55:29;7.90;;;5.30;;
1779;SDS011;10019;46.670;14.260;2022-12-07T05:58:01;7.63;;;5.97;;
1779;SDS011;10019;46.670;14.260;2022-12-07T06:00:53;6.97;;;5.63;;
1779;SDS011;10019;46.670;14.260;2022-12-07T06:03:25;8.07;;;6.00;;
1779;SDS011;10019;46.670;14.260;2022-12-07T06:05:58;8.23;;;5.40;;
1779;SDS011;10019;46.670;14.260;2022-12-07T06:08:30;6.93;;;5.50;;
1779;SDS011;10019;46.670;14.260;2022-12-07T06:11:02;6.67;;;5.23;;
1779;SDS011;10019;46.670;14.260;2022-12-07T06:13:51;9.07;;;6.10;;
1779;SDS011;10019;46.670;14.260;2022-12-07T06:16:23;5.70;;;4.97;;
1779;SDS011;10019;46.670;14.260;2022-12-07T06:18:54;9.10;;;5.70;;
1779;SDS011;10019;46.670;14.260;2022-12-07T06:21:27;11.67;;;6.80;;
1779;SDS011;10019;46.670;14.260;2022-12-07T06:23:59;7.50;;;5.70;;
1779;SDS011;10019;46.670;14.260;2022-12-07T06:26:31;10.47;;;6.07;;
1779;SDS011;10019;46.670;14.260;2022-12-07T06:29:02;8.50;;;6.77;;
1779;SDS011;10019;46.670;14.260;2022-12-07T06:31:35;8.67;;;6.60;;
1779;SDS011;10019;46.670;14.260;2022-12-07T06:34:08;6.80;;;6.10;;
1779;SDS011;10019;46.670;14.260;2022-12-07T06:36:43;6.93;;;5.90;;
1779;SDS011;10019;46.670;14.260;2022-12-07T06:39:15;9.30;;;6.43;;
1779;SDS011;10019;46.670;14.260;2022-12-07T06:41:46;12.60;;;6.27;;
1779;SDS011;10019;46.670;14.260;2022-12-07T06:44:18;6.67;;;5.80;;
1779;SDS011;10019;46.670;14.260;2022-12-07T06:46:50;11.17;;;6.23;;
1779;SDS011;10019;46.670;14.260;2022-12-07T06:49:22;8.90;;;6.07;;
1779;SDS011;10019;46.670;14.260;2022-12-07T06:51:55;8.10;;;6.37;;
1779;SDS011;10019;46.670;14.260;2022-12-07T06:54:27;10.33;;;5.70;;
1779;SDS011;10019;46.670;14.260;2022-12-07T06:57:00;10.40;;;6.87;;
1779;SDS011;10019;46.670;14.260;2022-12-07T06:59:31;6.33;;;5.40;;
1779;SDS011;10019;46.670;14.260;2022-12-07T07:02:03;6.17;;;5.33;;
1779;SDS011;10019;46.670;14.260;2022-12-07T07:04:35;7.63;;;6.67;;
1779;SDS011;10019;46.670;14.260;2022-12-07T07:07:08;5.87;;;5.27;;
1779;SDS011;10019;46.670;14.260;2022-12-07T07:09:40;6.40;;;5.80;;
1779;SDS011;10019;46.670;14.260;2022-12-07T07:12:11;7.00;;;5.97;;
1779;SDS011;10019;46.670;14.260;2022-12-07T07:14:43;7.17;;;5.97;;
1779;SDS011;10019;46.670;14.260;2022-12-07T07:17:15;8.77;;;6.77;;
1779;SDS011;10019;46.670;14.260;2022-12-07T07:19:46;6.60;;;6.00;;
1779;SDS011;10019;46.670;14.260;2022-12-07T07:22:19;7.53;;;5.80;;
1779;SDS011;10019;46.670;14.260;2022-12-07T07:24:51;6.53;;;5.80;;
1779;SDS011;10019;46.670;14.260;2022-12-07T07:27:23;7.17;;;5.93;;
1779;SDS011;10019;46.670;14.260;2022-12-07T07:29:54;7.33;;;5.53;;
1779;SDS011;10019;46.670;14.260;2022-12-07T07:32:26;9.50;;;6.40;;
1779;SDS011;10019;46.670;14.260;2022-12-07T07:34:58;15.50;;;10.70;;
1779;SDS011;10019;46.670;14.260;2022-12-07T07:37:31;7.70;;;6.27;;
1779;SDS011;10019;46.670;14.260;2022-12-07T07:40:03;8.83;;;6.20;;
1779;SDS011;10019;46.670;14.260;2022-12-07T07:42:35;7.43;;;5.73;;
1779;SDS011;10019;46.670;14.260;2022-12-07T07:45:08;6.63;;;5.60;;
1779;SDS011;10019;46.670;14.260;2022-12-07T07:47:40;8.53;;;6.67;;
1779;SDS011;10019;46.670;14.260;2022-12-07T07:50:11;6.07;;;5.57;;
1779;SDS011;10019;46.670;14.260;2022-12-07T07:52:45;7.13;;;5.83;;
1779;SDS011;10019;46.670;14.260;2022-12-07T07:55:17;62.63;;;29.77;;
1779;SDS011;10019;46.670;14.260;2022-12-07T07:57:48;280.63;;;125.90;;
1779;SDS011;10019;46.670;14.260;2022-12-07T08:00:20;168.47;;;87.13;;
1779;SDS011;10019;46.670;14.260;2022-12-07T08:02:52;159.50;;;79.63;;
1779;SDS011;10019;46.670;14.260;2022-12-07T08:05:24;15.90;;;9.90;;
1779;SDS011;10019;46.670;14.260;2022-12-07T08:07:58;10.33;;;7.63;;
1779;SDS011;10019;46.670;14.260;2022-12-07T08:10:30;6.57;;;5.70;;
1779;SDS011;10019;46.670;14.260;2022-12-07T08:13:02;6.73;;;5.20;;
1779;SDS011;10019;46.670;14.260;2022-12-07T08:15:44;6.20;;;5.60;;
1779;SDS011;10019;46.670;14.260;2022-12-07T08:18:17;7.30;;;5.37;;
1779;SDS011;10019;46.670;14.260;2022-12-07T08:20:48;6.20;;;4.80;;
1779;SDS011;10019;46.670;14.260;2022-12-07T08:23:21;6.43;;;4.80;;
1779;SDS011;10019;46.670;14.260;2022-12-07T08:25:53;7.50;;;5.80;;
1779;SDS011;10019;46.670;14.260;2022-12-07T08:28:25;5.77;;;4.97;;
1779;SDS011;10019;46.670;14.260;2022-12-07T08:30:58;16.90;;;12.90;;
1779;SDS011;10019;46.670;14.260;2022-12-07T08:33:30;50.33;;;36.17;;
1779;SDS011;10019;46.670;14.260;2022-12-07T08:36:03;14.13;;;8.77;;
1779;SDS011;10019;46.670;14.260;2022-12-07T08:38:37;17.87;;;15.40;;
1779;SDS011;10019;46.670;14.260;2022-12-07T08:41:10;8.80;;;7.60;;
1779;SDS011;10019;46.670;14.260;2022-12-07T08:43:41;9.27;;;7.97;;
1779;SDS011;10019;46.670;14.260;2022-12-07T08:46:15;6.70;;;5.63;;
1779;SDS011;10019;46.670;14.260;2022-12-07T08:48:51;7.23;;;6.50;;
1779;SDS011;10019;46.670;14.260;2022-12-07T08:51:24;6.30;;;4.80;;
1779;SDS011;10019;46.670;14.260;2022-12-07T08:53:58;5.87;;;4.57;;
1779;SDS011;10019;46.670;14.260;2022-12-07T08:56:31;4.53;;;4.00;;
1779;SDS011;10019;46.670;14.260;2022-12-07T08:59:03;5.33;;;4.50;;
1779;SDS011;10019;46.670;14.260;2022-12-07T09:01:35;6.00;;;5.10;;
1779;SDS011;10019;46.670;14.260;2022-12-07T09:04:07;13.20;;;10.30;;
1779;SDS011;10019;46.670;14.260;2022-12-07T09:06:39;19.93;;;15.10;;
1779;SDS011;10019;46.670;14.260;2022-12-07T09:09:13;6.37;;;4.47;;
1779;SDS011;10019;46.670;14.260;2022-12-07T09:11:45;5.43;;;3.87;;
1779;SDS011;10019;46.670;14.260;2022-12-07T09:14:16;5.93;;;4.30;;
1779;SDS011;10019;46.670;14.260;2022-12-07T09:16:48;11.17;;;10.00;;
1779;SDS011;10019;46.670;14.260;2022-12-07T09:19:20;6.17;;;5.57;;
1779;SDS011;10019;46.670;14.260;2022-12-07T09:21:52;5.30;;;4.43;;
1779;SDS011;10019;46.670;14.260;2022-12-07T09:24:25;5.30;;;3.87;;
1779;SDS011;10019;46.670;14.260;2022-12-07T09:26:57;6.60;;;4.40;;
1779;SDS011;10019;46.670;14.260;2022-12-07T09:29:29;4.37;;;3.70;;
1779;SDS011;10019;46.670;14.260;2022-12-07T09:32:01;5.03;;;4.60;;
1779;SDS011;10019;46.670;14.260;2022-12-07T09:34:33;4.37;;;3.90;;
1779;SDS011;10019;46.670;14.260;2022-12-07T09:37:04;5.00;;;4.00;;
1779;SDS011;10019;46.670;14.260;2022-12-07T09:39:38;4.33;;;3.50;;
1779;SDS011;10019;46.670;14.260;2022-12-07T09:42:11;5.73;;;4.13;;
1779;SDS011;10019;46.670;14.260;2022-12-07T09:44:55;4.63;;;3.90;;
1779;SDS011;10019;46.670;14.260;2022-12-07T09:47:28;4.27;;;3.60;;
1779;SDS011;10019;46.670;14.260;2022-12-07T09:50:01;6.20;;;4.40;;
1779;SDS011;10019;46.670;14.260;2022-12-07T09:52:37;5.20;;;4.30;;
1779;SDS011;10019;46.670;14.260;2022-12-07T09:55:11;4.73;;;3.80;;
1779;SDS011;10019;46.670;14.260;2022-12-07T09:57:44;4.30;;;3.90;;
1779;SDS011;10019;46.670;14.260;2022-12-07T10:00:17;4.40;;;4.00;;
1779;SDS011;10019;46.670;14.260;2022-12-07T10:02:53;4.47;;;4.07;;
1779;SDS011;10019;46.670;14.260;2022-12-07T10:05:27;4.87;;;4.37;;
1779;SDS011;10019;46.670;14.260;2022-12-07T10:08:01;5.10;;;4.07;;
1779;SDS011;10019;46.670;14.260;2022-12-07T10:10:34;4.53;;;4.00;;
1779;SDS011;10019;46.670;14.260;2022-12-07T10:13:09;4.27;;;3.87;;
1779;SDS011;10019;46.670;14.260;2022-12-07T10:15:46;5.20;;;4.10;;
1779;SDS011;10019;46.670;14.260;2022-12-07T10:18:30;4.57;;;4.17;;
1779;SDS011;10019;46.670;14.260;2022-12-07T10:21:04;6.23;;;4.50;;
1779;SDS011;10019;46.670;14.260;2022-12-07T10:23:58;4.33;;;3.90;;
1779;SDS011;10019;46.670;14.260;2022-12-07T10:26:32;6.37;;;4.80;;
1779;SDS011;10019;46.670;14.260;2022-12-07T10:29:13;6.93;;;4.60;;
1779;SDS011;10019;46.670;14.260;2022-12-07T10:31:48;5.90;;;4.90;;
1779;SDS011;10019;46.670;14.260;2022-12-07T10:34:26;7.57;;;4.90;;
1779;SDS011;10019;46.670;14.260;2022-12-07T10:37:07;5.33;;;4.83;;
1779;SDS011;10019;46.670;14.260;2022-12-07T10:39:46;5.70;;;4.70;;
1779;SDS011;10019;46.670;14.260;2022-12-07T10:42:20;5.47;;;4.50;;
1779;SDS011;10019;46.670;14.260;2022-12-07T10:45:06;6.47;;;5.03;;
1779;SDS011;10019;46.670;14.260;2022-12-07T10:47:42;6.93;;;4.90;;
1779;SDS011;10019;46.670;14.260;2022-12-07T10:50:37;6.03;;;4.80;;
1779;SDS011;10019;46.670;14.260;2022-12-07T10:53:23;6.93;;;5.47;;
1779;SDS011;10019;46.670;14.260;2022-12-07T10:56:06;10.90;;;7.40;;
1779;SDS011;10019;46.670;14.260;2022-12-07T10:58:52;7.07;;;6.00;;
1779;SDS011;10019;46.670;14.260;2022-12-07T11:01:30;8.87;;;5.93;;
1779;SDS011;10019;46.670;14.260;2022-12-07T11:04:10;12.27;;;8.37;;
1779;SDS011;10019;46.670;14.260;2022-12-07T11:06:50;29.20;;;16.63;;
1779;SDS011;10019;46.670;14.260;2022-12-07T11:09:29;11.47;;;7.70;;
1779;SDS011;10019;46.670;14.260;2022-12-07T11:12:11;10.47;;;7.17;;
1779;SDS011;10019;46.670;14.260;2022-12-07T11:14:54;9.40;;;6.37;;
1779;SDS011;10019;46.670;14.260;2022-12-07T11:17:32;8.53;;;5.10;;
1779;SDS011;10019;46.670;14.260;2022-12-07T11:20:12;8.80;;;5.33;;
1779;SDS011;10019;46.670;14.260;2022-12-07T11:22:51;6.20;;;4.90;;
1779;SDS011;10019;46.670;14.260;2022-12-07T11:25:28;6.47;;;4.97;;
1779;SDS011;10019;46.670;14.260;2022-12-07T11:28:08;7.93;;;6.13;;
1779;SDS011;10019;46.670;14.260;2022-12-07T11:30:49;8.33;;;5.70;;
1779;SDS011;10019;46.670;14.260;2022-12-07T11:33:27;8.07;;;4.53;;
1779;SDS011;10019;46.670;14.260;2022-12-07T11:36:02;5.50;;;4.80;;
1779;SDS011;10019;46.670;14.260;2022-12-07T11:38:41;6.93;;;5.30;;
1779;SDS011;10019;46.670;14.260;2022-12-07T11:41:14;6.30;;;4.67;;
1779;SDS011;10019;46.670;14.260;2022-12-07T11:43:56;6.30;;;4.50;;
1779;SDS011;10019;46.670;14.260;2022-12-07T11:46:34;6.90;;;5.23;;
1779;SDS011;10019;46.670;14.260;2022-12-07T11:49:19;6.40;;;4.67;;
1779;SDS011;10019;46.670;14.260;2022-12-07T11:51:52;4.57;;;4.03;;
1779;SDS011;10019;46.670;14.260;2022-12-07T11:54:29;8.20;;;6.27;;
1779;SDS011;10019;46.670;14.260;2022-12-07T11:57:03;7.67;;;5.27;;
1779;SDS011;10019;46.670;14.260;2022-12-07T11:59:41;9.70;;;5.47;;
1779;SDS011;10019;46.670;14.260;2022-12-07T12:02:16;8.23;;;5.67;;
1779;SDS011;10019;46.670;14.260;2022-12-07T12:04:51;7.03;;;5.70;;
1779;SDS011;10019;46.670;14.260;2022-12-07T12:07:26;9.43;;;5.60;;
1779;SDS011;10019;46.670;14.260;2022-12-07T12:09:59;13.27;;;8.03;;
1779;SDS011;10019;46.670;14.260;2022-12-07T12:12:40;6.47;;;5.10;;
1779;SDS011;10019;46.670;14.260;2022-12-07T12:15:25;7.80;;;4.60;;
1779;SDS011;10019;46.670;14.260;2022-12-07T12:18:10;6.50;;;4.83;;
1779;SDS011;10019;46.670;14.260;2022-12-07T12:20:48;8.30;;;5.00;;
1779;SDS011;10019;46.670;14.260;2022-12-07T12:23:22;8.37;;;5.00;;
1779;SDS011;10019;46.670;14.260;2022-12-07T12:25:56;6.47;;;5.13;;
1779;SDS011;10019;46.670;14.260;2022-12-07T12:28:29;5.60;;;4.60;;
1779;SDS011;10019;46.670;14.260;2022-12-07T12:31:05;7.77;;;4.43;;
1779;SDS011;10019;46.670;14.260;2022-12-07T12:33:43;6.87;;;4.80;;
1779;SDS011;10019;46.670;14.260;2022-12-07T12:36:18;5.10;;;3.90;;
1779;SDS011;10019;46.670;14.260;2022-12-07T12:39:09;7.30;;;4.37;;
1779;SDS011;10019;46.670;14.260;2022-12-07T12:41:58;6.63;;;4.97;;
1779;SDS011;10019;46.670;14.260;2022-12-07T12:47:40;54.10;;;26.00;;
1779;SDS011;10019;46.670;14.260;2022-12-07T12:50:30;109.20;;;46.57;;
1779;SDS011;10019;46.670;14.260;2022-12-07T12:53:13;11.00;;;6.60;;
1779;SDS011;10019;46.670;14.260;2022-12-07T13:02:07;7.37;;;4.40;;
1779;SDS011;10019;46.670;14.260;2022-12-07T13:04:53;5.60;;;4.50;;
1779;SDS011;10019;46.670;14.260;2022-12-07T13:10:40;7.10;;;4.90;;
1779;SDS011;10019;46.670;14.260;2022-12-07T13:13:32;5.47;;;4.73;;
1779;SDS011;10019;46.670;14.260;2022-12-07T13:22:44;6.17;;;5.00;;
1779;SDS011;10019;46.670;14.260;2022-12-07T13:25:21;5.57;;;4.77;;
1779;SDS011;10019;46.670;14.260;2022-12-07T13:28:02;7.67;;;4.97;;
1779;SDS011;10019;46.670;14.260;2022-12-07T13:30:42;6.23;;;5.10;;
1779;SDS011;10019;46.670;14.260;2022-12-07T13:33:17;8.00;;;7.20;;
1779;SDS011;10019;46.670;14.260;2022-12-07T13:35:50;4.97;;;4.47;;
1779;SDS011;10019;46.670;14.260;2022-12-07T13:38:25;6.70;;;5.07;;
1779;SDS011;10019;46.670;14.260;2022-12-07T13:41:00;8.30;;;7.17;;
1779;SDS011;10019;46.670;14.260;2022-12-07T13:43:43;10.23;;;8.90;;
1779;SDS011;10019;46.670;14.260;2022-12-07T13:46:17;72.57;;;43.40;;
1779;SDS011;10019;46.670;14.260;2022-12-07T13:48:49;49.50;;;40.57;;
1779;SDS011;10019;46.670;14.260;2022-12-07T13:51:22;11.20;;;8.90;;
1779;SDS011;10019;46.670;14.260;2022-12-07T13:53:59;8.97;;;4.90;;
1779;SDS011;10019;46.670;14.260;2022-12-07T13:56:32;5.03;;;4.53;;
1779;SDS011;10019;46.670;14.260;2022-12-07T13:59:07;5.03;;;4.30;;
1779;SDS011;10019;46.670;14.260;2022-12-07T14:01:44;6.47;;;5.00;;
1779;SDS011;10019;46.670;14.260;2022-12-07T14:04:34;5.20;;;4.07;;
1779;SDS011;10019;46.670;14.260;2022-12-07T14:07:23;5.33;;;4.70;;
1779;SDS011;10019;46.670;14.260;2022-12-07T14:09:59;6.10;;;4.67;;
1779;SDS011;10019;46.670;14.260;2022-12-07T14:12:32;4.60;;;3.97;;
1779;SDS011;10019;46.670;14.260;2022-12-07T14:15:15;5.07;;;4.50;;
1779;SDS011;10019;46.670;14.260;2022-12-07T14:17:52;7.77;;;4.50;;
1779;SDS011;10019;46.670;14.260;2022-12-07T14:20:29;4.93;;;4.30;;
1779;SDS011;10019;46.670;14.260;2022-12-07T14:23:02;5.50;;;4.63;;
1779;SDS011;10019;46.670;14.260;2022-12-07T14:25:49;10.20;;;7.57;;
1779;SDS011;10019;46.670;14.260;2022-12-07T14:28:25;9.67;;;8.67;;
1779;SDS011;10019;46.670;14.260;2022-12-07T14:30:59;7.90;;;6.63;;
1779;SDS011;10019;46.670;14.260;2022-12-07T14:33:31;11.90;;;10.60;;
1779;SDS011;10019;46.670;14.260;2022-12-07T14:36:03;10.90;;;7.70;;
1779;SDS011;10019;46.670;14.260;2022-12-07T14:38:35;6.73;;;4.70;;
1779;SDS011;10019;46.670;14.260;2022-12-07T14:41:10;5.23;;;4.73;;
1779;SDS011;10019;46.670;14.260;2022-12-07T14:43:59;5.23;;;4.40;;
1779;SDS011;10019;46.670;14.260;2022-12-07T14:46:32;4.93;;;4.23;;
1779;SDS011;10019;46.670;14.260;2022-12-07T14:49:04;5.33;;;4.50;;
1779;SDS011;10019;46.670;14.260;2022-12-07T14:51:37;5.87;;;5.10;;
1779;SDS011;10019;46.670;14.260;2022-12-07T14:54:12;5.20;;;4.40;;
1779;SDS011;10019;46.670;14.260;2022-12-07T14:56:45;5.00;;;3.80;;
1779;SDS011;10019;46.670;14.260;2022-12-07T14:59:19;6.63;;;3.80;;
1779;SDS011;10019;46.670;14.260;2022-12-07T15:01:52;5.70;;;4.50;;
1779;SDS011;10019;46.670;14.260;2022-12-07T15:04:24;5.97;;;4.93;;
1779;SDS011;10019;46.670;14.260;2022-12-07T15:06:56;4.57;;;3.93;;
1779;SDS011;10019;46.670;14.260;2022-12-07T15:09:28;4.07;;;3.67;;
1779;SDS011;10019;46.670;14.260;2022-12-07T15:11:59;6.20;;;4.40;;
1779;SDS011;10019;46.670;14.260;2022-12-07T15:14:31;5.40;;;4.90;;
1779;SDS011;10019;46.670;14.260;2022-12-07T15:17:04;7.63;;;4.47;;
1779;SDS011;10019;46.670;14.260;2022-12-07T15:19:36;5.87;;;4.57;;
1779;SDS011;10019;46.670;14.260;2022-12-07T15:22:08;4.97;;;4.33;;
1779;SDS011;10019;46.670;14.260;2022-12-07T15:24:41;5.03;;;4.10;;
1779;SDS011;10019;46.670;14.260;2022-12-07T15:27:12;5.23;;;4.13;;
1779;SDS011;10019;46.670;14.260;2022-12-07T15:29:44;4.50;;;3.87;;
1779;SDS011;10019;46.670;14.260;2022-12-07T15:32:17;5.57;;;4.20;;
1779;SDS011;10019;46.670;14.260;2022-12-07T15:34:49;4.20;;;3.80;;
1779;SDS011;10019;46.670;14.260;2022-12-07T15:37:21;6.90;;;5.00;;
1779;SDS011;10019;46.670;14.260;2022-12-07T15:39:52;5.90;;;4.90;;
1779;SDS011;10019;46.670;14.260;2022-12-07T15:42:24;6.33;;;5.50;;
1779;SDS011;10019;46.670;14.260;2022-12-07T15:44:56;6.37;;;4.87;;
1779;SDS011;10019;46.670;14.260;2022-12-07T15:47:38;7.43;;;4.77;;